HOURLY OBS INDEX

050

Central Western Plains - south

CONDOBOLIN AIRPORT AWS

Site: 050137
Alt: 192.6m
6km E of CONDOBOLIN


  Time     Wind        Temp  DP   Baro     Rain since   Rain past  Vis(m), Cloud(base in m), Weather
  local        km/h                         9am  last   hr   10m    
Tue 20:00    W  6/  7   6.6  3.8  1027.2    0.0   0.0   0.0   0.0   ----- 
Tue 20:30    C  0/  0   5.8  3.5  1027.5    0.0   0.0   0.0   0.0   ----- 
Tue 21:00    C  0/  0   5.3  3.5  1027.5    0.0   0.0   0.0   0.0   ----- 
Tue 21:30  WNW  4/  7   4.3  2.7  1027.9    0.0   0.0   0.0   0.0   ----- 
Tue 22:00    C  0/  0   4.2  2.7  1028.2    0.0   0.0   0.0   0.0   ----- 
Tue 22:30    C  0/  0   3.8  2.2  1028.2    0.0   0.0   0.0   0.0   ----- 
Tue 23:00    C  0/  0   4.1  3.1  1028.0    0.0   0.0   0.0   0.0   ----- 
Tue 23:30    C  0/  0   3.1  2.2  1027.7    0.0   0.0   0.0   0.0   ----- 
Wed 00:00    C  0/  0   3.7  3.1  1027.5    0.0   0.0   0.0   0.0   ----- 
Wed 00:30    C  0/  6   3.0  2.3  1027.6    0.0   0.0   0.0   0.0   ----- 
Wed 01:00    E  6/  7   4.3  3.7  1027.4    0.0   0.0   0.0   0.0   ----- 
Wed 01:00    E  6/  7   4.3  3.7  1027.4    0.0   0.0  ----   0.0   ----- 

WEST WYALONG AIRPORT AWS

Site: 050017
Alt: 257.0m
97km S of CONDOBOLIN


  Time     Wind        Temp  DP   Baro     Rain since   Rain past  Vis(m), Cloud(base in m), Weather
  local        km/h                         9am  last   hr   10m    
Tue 20:00  WSW  7/  9   7.6  3.8  1027.7    0.0   0.0   0.0   0.0   ----- 
Tue 20:30  WSW  9/  9   7.3  3.9  1028.0    0.0   0.0   0.0   0.0   ----- 
Tue 21:00  WSW 11/ 13   7.0  4.0  1028.2    0.0   0.0   0.0   0.0   ----- 
Tue 21:30  SSW  6/  9   6.6  3.8  1028.2    0.0   0.0   0.0   0.0   ----- 
Tue 22:00  SSE  2/  6   5.9  3.4  1028.5    0.0   0.0   0.0   0.0   ----- 
Tue 22:30    C  0/  0   5.5  3.3  1028.6    0.0   0.0   0.0   0.0   ----- 
Tue 23:00   SW  7/  7   5.7  3.4  1028.6    0.0   0.0   0.0   0.0   ----- 
Tue 23:30    C  0/  6   4.4  2.6  1028.1    0.0   0.0   0.0   0.0   ----- 
Wed 00:00    C  0/  4   4.3  3.0  1028.1    0.0   0.0   0.0   0.0   ----- 
Wed 00:30    C  0/  0   4.2  2.9  1027.9    0.0   0.0   0.0   0.0   ----- 
Wed 01:00   SE  6/  7   4.2  3.0  1027.7    0.0   0.0   0.0   0.0   ----- 
Wed 01:00   SE  6/  7   4.2  3.0  1027.7    0.0   0.0  ----   0.0   -----